sensor_id;sensor_type;location;lat;lon;timestamp;pressure;altitude;pressure_sealevel;temperature;humidity
9695;BME280;4690;52.422;13.486;2023-04-25T00:04:27;100276.84;;;10.11;69.96
9695;BME280;4690;52.422;13.486;2023-04-25T00:06:54;100281.59;;;10.16;69.65
9695;BME280;4690;52.422;13.486;2023-04-25T00:09:20;100283.16;;;10.12;70.06
9695;BME280;4690;52.422;13.486;2023-04-25T00:11:45;100285.81;;;10.30;69.22
9695;BME280;4690;52.422;13.486;2023-04-25T00:14:11;100283.28;;;10.17;68.74
9695;BME280;4690;52.422;13.486;2023-04-25T00:16:37;100283.28;;;10.17;68.08
9695;BME280;4690;52.422;13.486;2023-04-25T00:19:03;100283.00;;;10.06;67.74
9695;BME280;4690;52.422;13.486;2023-04-25T00:21:29;100288.16;;;10.15;67.73
9695;BME280;4690;52.422;13.486;2023-04-25T00:23:57;100284.66;;;10.07;67.04
9695;BME280;4690;52.422;13.486;2023-04-25T00:26:22;100285.63;;;10.13;66.93
9695;BME280;4690;52.422;13.486;2023-04-25T00:28:48;100281.34;;;10.05;66.56
9695;BME280;4690;52.422;13.486;2023-04-25T00:31:14;100288.63;;;10.12;66.86
9695;BME280;4690;52.422;13.486;2023-04-25T00:33:40;100284.94;;;10.18;66.31
9695;BME280;4690;52.422;13.486;2023-04-25T00:36:06;100283.84;;;10.07;66.88
9695;BME280;4690;52.422;13.486;2023-04-25T00:38:33;100284.31;;;10.04;66.91
9695;BME280;4690;52.422;13.486;2023-04-25T00:40:59;100289.81;;;10.16;66.92
9695;BME280;4690;52.422;13.486;2023-04-25T00:43:30;100276.84;;;10.23;66.42
9695;BME280;4690;52.422;13.486;2023-04-25T00:45:59;100277.69;;;10.23;66.23
9695;BME280;4690;52.422;13.486;2023-04-25T00:48:25;100276.25;;;10.21;66.60
9695;BME280;4690;52.422;13.486;2023-04-25T00:50:54;100276.34;;;10.02;66.88
9695;BME280;4690;52.422;13.486;2023-04-25T00:53:22;100270.88;;;10.02;67.23
9695;BME280;4690;52.422;13.486;2023-04-25T00:55:48;100274.06;;;9.99;67.74
9695;BME280;4690;52.422;13.486;2023-04-25T00:58:20;100279.09;;;10.02;67.88
9695;BME280;4690;52.422;13.486;2023-04-25T01:00:49;100269.22;;;10.13;67.94
9695;BME280;4690;52.422;13.486;2023-04-25T01:03:16;100264.38;;;9.85;68.49
9695;BME280;4690;52.422;13.486;2023-04-25T01:05:43;100268.84;;;9.98;68.72
9695;BME280;4690;52.422;13.486;2023-04-25T01:08:10;100264.47;;;10.08;67.90
9695;BME280;4690;52.422;13.486;2023-04-25T01:10:36;100262.81;;;10.19;67.79
9695;BME280;4690;52.422;13.486;2023-04-25T01:13:03;100260.66;;;10.21;67.67
9695;BME280;4690;52.422;13.486;2023-04-25T01:15:29;100262.03;;;10.30;67.61
9695;BME280;4690;52.422;13.486;2023-04-25T01:17:55;100252.91;;;10.18;66.88
9695;BME280;4690;52.422;13.486;2023-04-25T01:20:23;100261.13;;;10.18;67.47
9695;BME280;4690;52.422;13.486;2023-04-25T01:22:51;100265.91;;;10.23;67.21
9695;BME280;4690;52.422;13.486;2023-04-25T01:25:20;100267.59;;;10.36;66.69
9695;BME280;4690;52.422;13.486;2023-04-25T01:27:47;100262.72;;;10.38;66.33
9695;BME280;4690;52.422;13.486;2023-04-25T01:30:13;100268.06;;;10.44;66.20
9695;BME280;4690;52.422;13.486;2023-04-25T01:32:42;100265.47;;;10.38;66.20
9695;BME280;4690;52.422;13.486;2023-04-25T01:35:11;100268.91;;;10.33;66.63
9695;BME280;4690;52.422;13.486;2023-04-25T01:37:40;100264.63;;;10.37;67.00
9695;BME280;4690;52.422;13.486;2023-04-25T01:40:08;100263.56;;;10.38;66.96
9695;BME280;4690;52.422;13.486;2023-04-25T01:42:37;100265.72;;;10.36;67.03
9695;BME280;4690;52.422;13.486;2023-04-25T01:45:04;100264.16;;;10.28;67.24
9695;BME280;4690;52.422;13.486;2023-04-25T01:47:30;100262.22;;;10.17;68.08
9695;BME280;4690;52.422;13.486;2023-04-25T01:49:56;100268.16;;;10.14;67.84
9695;BME280;4690;52.422;13.486;2023-04-25T01:52:22;100265.56;;;10.19;68.28
9695;BME280;4690;52.422;13.486;2023-04-25T01:54:48;100262.69;;;10.26;68.23
9695;BME280;4690;52.422;13.486;2023-04-25T01:57:15;100250.31;;;10.23;67.16
9695;BME280;4690;52.422;13.486;2023-04-25T01:59:43;100266.38;;;10.20;67.78
9695;BME280;4690;52.422;13.486;2023-04-25T02:02:08;100265.03;;;10.10;68.03
9695;BME280;4690;52.422;13.486;2023-04-25T02:04:34;100261.34;;;10.05;68.27
9695;BME280;4690;52.422;13.486;2023-04-25T02:07:00;100258.59;;;10.05;68.30
9695;BME280;4690;52.422;13.486;2023-04-25T02:09:26;100264.81;;;10.00;68.28
9695;BME280;4690;52.422;13.486;2023-04-25T02:11:52;100260.63;;;9.98;68.65
9695;BME280;4690;52.422;13.486;2023-04-25T02:14:18;100268.84;;;9.98;68.88
9695;BME280;4690;52.422;13.486;2023-04-25T02:16:44;100268.47;;;9.94;69.21
9695;BME280;4690;52.422;13.486;2023-04-25T02:19:10;100274.19;;;10.04;68.62
9695;BME280;4690;52.422;13.486;2023-04-25T02:21:36;100273.72;;;10.07;68.81
9695;BME280;4690;52.422;13.486;2023-04-25T02:24:03;100271.25;;;10.06;68.73
9695;BME280;4690;52.422;13.486;2023-04-25T02:26:29;100267.28;;;10.02;69.01
9695;BME280;4690;52.422;13.486;2023-04-25T02:28:56;100268.94;;;9.91;68.60
9695;BME280;4690;52.422;13.486;2023-04-25T02:31:22;100269.38;;;9.88;69.08
9695;BME280;4690;52.422;13.486;2023-04-25T02:33:48;100268.94;;;9.91;68.32
9695;BME280;4690;52.422;13.486;2023-04-25T02:36:14;100263.38;;;9.98;68.73
9695;BME280;4690;52.422;13.486;2023-04-25T02:38:40;100271.47;;;10.16;68.19
9695;BME280;4690;52.422;13.486;2023-04-25T02:41:06;100265.63;;;10.13;68.18
9695;BME280;4690;52.422;13.486;2023-04-25T02:43:32;100265.41;;;10.02;68.56
9695;BME280;4690;52.422;13.486;2023-04-25T02:45:58;100262.06;;;10.00;68.33
9695;BME280;4690;52.422;13.486;2023-04-25T02:48:23;100267.28;;;10.02;68.43
9695;BME280;4690;52.422;13.486;2023-04-25T02:50:49;100263.38;;;9.98;68.50
9695;BME280;4690;52.422;13.486;2023-04-25T02:53:15;100273.38;;;10.04;68.35
9695;BME280;4690;52.422;13.486;2023-04-25T02:55:41;100266.38;;;10.08;67.93
9695;BME280;4690;52.422;13.486;2023-04-25T02:58:06;100256.59;;;10.00;68.28
9695;BME280;4690;52.422;13.486;2023-04-25T03:00:32;100261.47;;;10.10;68.58
9695;BME280;4690;52.422;13.486;2023-04-25T03:02:58;100256.38;;;10.14;68.51
9695;BME280;4690;52.422;13.486;2023-04-25T03:05:24;100262.91;;;10.24;68.29
9695;BME280;4690;52.422;13.486;2023-04-25T03:07:50;100257.91;;;10.09;68.07
9695;BME280;4690;52.422;13.486;2023-04-25T03:10:15;100267.06;;;10.15;68.13
9695;BME280;4690;52.422;13.486;2023-04-25T03:12:41;100263.97;;;10.12;68.33
9695;BME280;4690;52.422;13.486;2023-04-25T03:15:07;100265.50;;;10.07;67.99
9695;BME280;4690;52.422;13.486;2023-04-25T03:17:33;100255.28;;;10.15;68.01
9695;BME280;4690;52.422;13.486;2023-04-25T03:19:59;100256.88;;;10.22;68.16
9695;BME280;4690;52.422;13.486;2023-04-25T03:22:25;100258.03;;;10.15;67.78
9695;BME280;4690;52.422;13.486;2023-04-25T03:24:51;100262.28;;;10.10;68.84
9695;BME280;4690;52.422;13.486;2023-04-25T03:27:17;100254.56;;;10.07;68.49
9695;BME280;4690;52.422;13.486;2023-04-25T03:29:43;100259.47;;;10.17;68.35
9695;BME280;4690;52.422;13.486;2023-04-25T03:32:09;100254.34;;;10.21;68.21
9695;BME280;4690;52.422;13.486;2023-04-25T03:34:34;100264.69;;;10.19;67.96
9695;BME280;4690;52.422;13.486;2023-04-25T03:37:01;100258.72;;;10.10;68.59
9695;BME280;4690;52.422;13.486;2023-04-25T03:39:26;100262.44;;;10.16;68.56
9695;BME280;4690;52.422;13.486;2023-04-25T03:41:52;100264.00;;;10.23;67.86
9695;BME280;4690;52.422;13.486;2023-04-25T03:44:18;100266.47;;;10.13;68.58
9695;BME280;4690;52.422;13.486;2023-04-25T03:46:43;100263.72;;;10.01;68.79
9695;BME280;4690;52.422;13.486;2023-04-25T03:49:09;100263.03;;;10.18;68.24
9695;BME280;4690;52.422;13.486;2023-04-25T03:51:35;100267.66;;;10.05;68.55
9695;BME280;4690;52.422;13.486;2023-04-25T03:54:01;100274.94;;;10.12;68.67
9695;BME280;4690;52.422;13.486;2023-04-25T03:56:27;100272.03;;;9.95;68.50
9695;BME280;4690;52.422;13.486;2023-04-25T03:58:52;100272.41;;;10.10;68.69
9695;BME280;4690;52.422;13.486;2023-04-25T04:01:18;100285.00;;;9.99;68.85
9695;BME280;4690;52.422;13.486;2023-04-25T04:03:44;100281.34;;;10.05;68.76
9695;BME280;4690;52.422;13.486;2023-04-25T04:06:10;100285.97;;;10.05;69.15
9695;BME280;4690;52.422;13.486;2023-04-25T04:08:36;100287.66;;;10.06;68.65
9695;BME280;4690;52.422;13.486;2023-04-25T04:11:02;100289.69;;;10.10;68.55
9695;BME280;4690;52.422;13.486;2023-04-25T04:13:29;100285.97;;;10.05;68.09
9695;BME280;4690;52.422;13.486;2023-04-25T04:15:55;100289.16;;;9.90;68.84
9695;BME280;4690;52.422;13.486;2023-04-25T04:18:21;100292.97;;;9.89;68.81
9695;BME280;4690;52.422;13.486;2023-04-25T04:20:47;100287.16;;;9.97;68.86
9695;BME280;4690;52.422;13.486;2023-04-25T04:23:13;100290.75;;;10.09;68.55
9695;BME280;4690;52.422;13.486;2023-04-25T04:25:39;100297.94;;;10.22;68.68
9695;BME280;4690;52.422;13.486;2023-04-25T04:28:06;100298.75;;;10.11;68.24
9695;BME280;4690;52.422;13.486;2023-04-25T04:30:32;100294.91;;;10.00;68.63
9695;BME280;4690;52.422;13.486;2023-04-25T04:33:02;100301.50;;;10.11;68.42
9695;BME280;4690;52.422;13.486;2023-04-25T04:35:28;100297.66;;;10.12;68.76
9695;BME280;4690;52.422;13.486;2023-04-25T04:37:54;100302.66;;;10.03;68.50
9695;BME280;4690;52.422;13.486;2023-04-25T04:40:21;100297.66;;;10.12;68.92
9695;BME280;4690;52.422;13.486;2023-04-25T04:42:47;100298.50;;;10.13;68.99
9695;BME280;4690;52.422;13.486;2023-04-25T04:45:14;100301.38;;;10.18;68.74
9695;BME280;4690;52.422;13.486;2023-04-25T04:47:40;100293.59;;;10.03;68.61
9695;BME280;4690;52.422;13.486;2023-04-25T04:50:08;100298.47;;;10.01;68.98
9695;BME280;4690;52.422;13.486;2023-04-25T04:52:38;100310.66;;;10.17;68.92
9695;BME280;4690;52.422;13.486;2023-04-25T04:55:05;100302.44;;;10.17;69.14
9695;BME280;4690;52.422;13.486;2023-04-25T04:57:31;100307.72;;;10.30;68.54
9695;BME280;4690;52.422;13.486;2023-04-25T04:59:58;100303.63;;;10.21;68.55
9695;BME280;4690;52.422;13.486;2023-04-25T05:02:25;100306.50;;;10.26;68.54
9695;BME280;4690;52.422;13.486;2023-04-25T05:04:51;100311.75;;;10.27;68.79
9695;BME280;4690;52.422;13.486;2023-04-25T05:07:18;100307.16;;;10.28;69.00
9695;BME280;4690;52.422;13.486;2023-04-25T05:09:44;100314.88;;;10.31;68.78
9695;BME280;4690;52.422;13.486;2023-04-25T05:12:10;100310.38;;;10.48;68.40
9695;BME280;4690;52.422;13.486;2023-04-25T05:14:36;100307.38;;;10.38;67.99
9695;BME280;4690;52.422;13.486;2023-04-25T05:17:02;100313.91;;;10.25;68.79
9695;BME280;4690;52.422;13.486;2023-04-25T05:19:30;100313.06;;;10.25;68.82
9695;BME280;4690;52.422;13.486;2023-04-25T05:21:56;100318.28;;;10.15;69.40
9695;BME280;4690;52.422;13.486;2023-04-25T05:24:22;100318.97;;;10.22;69.36
9695;BME280;4690;52.422;13.486;2023-04-25T05:26:47;100320.84;;;10.28;69.22
9695;BME280;4690;52.422;13.486;2023-04-25T05:29:13;100314.84;;;10.19;69.10
9695;BME280;4690;52.422;13.486;2023-04-25T05:31:39;100319.38;;;10.25;68.97
9695;BME280;4690;52.422;13.486;2023-04-25T05:34:05;100318.72;;;10.42;68.60
9695;BME280;4690;52.422;13.486;2023-04-25T05:36:31;100324.56;;;10.45;68.30
9695;BME280;4690;52.422;13.486;2023-04-25T05:38:58;100329.28;;;10.38;67.70
9695;BME280;4690;52.422;13.486;2023-04-25T05:41:23;100322.28;;;10.42;68.58
9695;BME280;4690;52.422;13.486;2023-04-25T05:43:49;100324.78;;;10.44;68.31
9695;BME280;4690;52.422;13.486;2023-04-25T05:46:15;100328.38;;;10.56;67.90
9695;BME280;4690;52.422;13.486;2023-04-25T05:48:45;100328.00;;;10.52;67.71
9695;BME280;4690;52.422;13.486;2023-04-25T05:51:11;100331.69;;;10.58;67.48
9695;BME280;4690;52.422;13.486;2023-04-25T05:53:36;100339.91;;;10.70;67.84
9695;BME280;4690;52.422;13.486;2023-04-25T05:56:02;100335.28;;;10.82;67.87
9695;BME280;4690;52.422;13.486;2023-04-25T05:58:28;100339.34;;;10.68;67.55
9695;BME280;4690;52.422;13.486;2023-04-25T06:00:54;100348.53;;;10.73;67.45
9695;BME280;4690;52.422;13.486;2023-04-25T06:03:20;100345.91;;;10.79;67.14
9695;BME280;4690;52.422;13.486;2023-04-25T06:05:46;100349.09;;;10.75;67.07
9695;BME280;4690;52.422;13.486;2023-04-25T06:08:12;100345.78;;;10.85;67.27
9695;BME280;4690;52.422;13.486;2023-04-25T06:10:38;100350.31;;;10.80;66.82
9695;BME280;4690;52.422;13.486;2023-04-25T06:13:04;100354.34;;;10.65;67.24
9695;BME280;4690;52.422;13.486;2023-04-25T06:15:31;100365.16;;;10.48;68.41
9695;BME280;4690;52.422;13.486;2023-04-25T06:17:58;100350.16;;;10.63;68.24
9695;BME280;4690;52.422;13.486;2023-04-25T06:20:24;100362.66;;;10.59;68.38
9695;BME280;4690;52.422;13.486;2023-04-25T06:22:51;100355.78;;;10.56;68.00
9695;BME280;4690;52.422;13.486;2023-04-25T06:25:20;100350.16;;;10.63;68.03
9695;BME280;4690;52.422;13.486;2023-04-25T06:27:46;100349.47;;;10.67;67.91
9695;BME280;4690;52.422;13.486;2023-04-25T06:30:12;100350.53;;;10.78;68.04
9695;BME280;4690;52.422;13.486;2023-04-25T06:32:38;100350.31;;;10.68;67.75
9695;BME280;4690;52.422;13.486;2023-04-25T06:35:05;100358.38;;;10.63;68.18
9695;BME280;4690;52.422;13.486;2023-04-25T06:37:31;100354.44;;;10.47;68.96
9695;BME280;4690;52.422;13.486;2023-04-25T06:39:57;100346.94;;;10.66;68.76
9695;BME280;4690;52.422;13.486;2023-04-25T06:42:22;100357.44;;;10.69;68.28
9695;BME280;4690;52.422;13.486;2023-04-25T06:44:48;100352.34;;;10.84;68.67
9695;BME280;4690;52.422;13.486;2023-04-25T06:47:14;100354.13;;;10.90;67.88
9695;BME280;4690;52.422;13.486;2023-04-25T06:49:40;100364.47;;;10.76;67.71
9695;BME280;4690;52.422;13.486;2023-04-25T06:52:07;100364.72;;;10.87;68.29
9695;BME280;4690;52.422;13.486;2023-04-25T06:54:32;100359.22;;;11.10;67.43
9695;BME280;4690;52.422;13.486;2023-04-25T06:56:58;100351.94;;;11.28;67.53
9695;BME280;4690;52.422;13.486;2023-04-25T06:59:26;100353.25;;;11.13;66.68
9695;BME280;4690;52.422;13.486;2023-04-25T07:01:52;100359.56;;;11.14;67.47
9695;BME280;4690;52.422;13.486;2023-04-25T07:04:18;100359.81;;;11.24;66.88
9695;BME280;4690;52.422;13.486;2023-04-25T07:06:44;100366.63;;;10.98;66.89
9695;BME280;4690;52.422;13.486;2023-04-25T07:09:10;100364.84;;;10.92;68.12
9695;BME280;4690;52.422;13.486;2023-04-25T07:11:36;100360.91;;;10.99;68.01
9695;BME280;4690;52.422;13.486;2023-04-25T07:14:02;100373.16;;;11.09;67.49
9695;BME280;4690;52.422;13.486;2023-04-25T07:16:28;100372.94;;;11.10;67.42
9695;BME280;4690;52.422;13.486;2023-04-25T07:18:54;100368.16;;;11.17;67.27
9695;BME280;4690;52.422;13.486;2023-04-25T07:21:20;100376.97;;;11.31;67.40
9695;BME280;4690;52.422;13.486;2023-04-25T07:23:45;100381.97;;;11.34;67.22
9695;BME280;4690;52.422;13.486;2023-04-25T07:26:12;100386.25;;;11.42;67.80
9695;BME280;4690;52.422;13.486;2023-04-25T07:28:38;100391.63;;;11.37;68.21
9695;BME280;4690;52.422;13.486;2023-04-25T07:31:04;100386.50;;;11.29;69.10
9695;BME280;4690;52.422;13.486;2023-04-25T07:33:30;100392.16;;;10.98;70.08
9695;BME280;4690;52.422;13.486;2023-04-25T07:35:56;100399.91;;;11.02;72.35
9695;BME280;4690;52.422;13.486;2023-04-25T07:38:22;100391.53;;;10.96;72.18
9695;BME280;4690;52.422;13.486;2023-04-25T07:40:51;100403.47;;;10.90;72.54
9695;BME280;4690;52.422;13.486;2023-04-25T07:43:17;100409.16;;;10.89;73.14
9695;BME280;4690;52.422;13.486;2023-04-25T07:45:46;100399.63;;;11.03;72.79
9695;BME280;4690;52.422;13.486;2023-04-25T07:48:17;100415.75;;;10.99;72.45
9695;BME280;4690;52.422;13.486;2023-04-25T07:50:46;100421.31;;;10.69;71.86
9695;BME280;4690;52.422;13.486;2023-04-25T07:53:12;100417.44;;;10.47;71.89
9695;BME280;4690;52.422;13.486;2023-04-25T07:55:38;100427.13;;;10.61;71.54
9695;BME280;4690;52.422;13.486;2023-04-25T07:58:06;100425.94;;;10.57;71.07
9695;BME280;4690;52.422;13.486;2023-04-25T08:00:32;100432.41;;;10.74;70.25
9695;BME280;4690;52.422;13.486;2023-04-25T08:02:58;100426.09;;;10.74;69.36
9695;BME280;4690;52.422;13.486;2023-04-25T08:05:24;100431.69;;;10.79;68.97
9695;BME280;4690;52.422;13.486;2023-04-25T08:07:49;100434.44;;;10.79;68.77
9695;BME280;4690;52.422;13.486;2023-04-25T08:10:15;100434.19;;;10.81;68.63
9695;BME280;4690;52.422;13.486;2023-04-25T08:12:41;100433.84;;;10.89;68.61
9695;BME280;4690;52.422;13.486;2023-04-25T08:15:09;100435.28;;;11.03;69.02
9695;BME280;4690;52.422;13.486;2023-04-25T08:17:35;100441.09;;;10.83;69.40
9695;BME280;4690;52.422;13.486;2023-04-25T08:20:01;100436.72;;;10.94;68.69
9695;BME280;4690;52.422;13.486;2023-04-25T08:22:30;100444.44;;;10.85;68.43
9695;BME280;4690;52.422;13.486;2023-04-25T08:24:55;100452.13;;;11.07;68.91
9695;BME280;4690;52.422;13.486;2023-04-25T08:27:21;100447.34;;;11.14;68.37
9695;BME280;4690;52.422;13.486;2023-04-25T08:29:47;100460.00;;;11.27;67.98
9695;BME280;4690;52.422;13.486;2023-04-25T08:32:13;100453.41;;;11.28;66.75
9695;BME280;4690;52.422;13.486;2023-04-25T08:34:39;100466.31;;;11.27;65.65
9695;BME280;4690;52.422;13.486;2023-04-25T08:37:08;100456.78;;;11.18;64.93
9695;BME280;4690;52.422;13.486;2023-04-25T08:39:36;100470.34;;;11.36;64.98
9695;BME280;4690;52.422;13.486;2023-04-25T08:42:06;100460.44;;;11.59;64.98
9695;BME280;4690;52.422;13.486;2023-04-25T08:44:36;100464.94;;;11.77;63.45
9695;BME280;4690;52.422;13.486;2023-04-25T08:47:06;100463.16;;;11.94;62.01
9695;BME280;4690;52.422;13.486;2023-04-25T08:49:33;100461.25;;;11.95;61.52
9695;BME280;4690;52.422;13.486;2023-04-25T08:52:03;100466.19;;;12.09;61.82
9695;BME280;4690;52.422;13.486;2023-04-25T08:54:31;100481.66;;;12.27;60.23
9695;BME280;4690;52.422;13.486;2023-04-25T08:57:01;100483.78;;;12.37;58.18
9695;BME280;4690;52.422;13.486;2023-04-25T08:59:30;100477.31;;;12.43;57.42
9695;BME280;4690;52.422;13.486;2023-04-25T09:01:57;100483.84;;;12.54;57.63
9695;BME280;4690;52.422;13.486;2023-04-25T09:04:23;100485.03;;;12.75;56.97
9695;BME280;4690;52.422;13.486;2023-04-25T09:06:49;100486.03;;;12.86;55.24
9695;BME280;4690;52.422;13.486;2023-04-25T09:09:14;100491.03;;;12.89;50.99
9695;BME280;4690;52.422;13.486;2023-04-25T09:11:41;100502.13;;;12.94;49.85
9695;BME280;4690;52.422;13.486;2023-04-25T09:14:19;100499.88;;;12.91;49.66
9695;BME280;4690;52.422;13.486;2023-04-25T09:19:23;100510.75;;;13.31;46.49
9695;BME280;4690;52.422;13.486;2023-04-25T09:21:50;100500.44;;;13.38;44.88
9695;BME280;4690;52.422;13.486;2023-04-25T09:24:30;100515.09;;;13.61;45.15
9695;BME280;4690;52.422;13.486;2023-04-25T09:26:56;100502.44;;;14.04;44.80
9695;BME280;4690;52.422;13.486;2023-04-25T09:29:33;100515.06;;;14.66;44.06
9695;BME280;4690;52.422;13.486;2023-04-25T09:34:43;100510.97;;;15.33;39.17
9695;BME280;4690;52.422;13.486;2023-04-25T09:37:10;100506.38;;;15.81;39.55
9695;BME280;4690;52.422;13.486;2023-04-25T09:39:39;100516.22;;;16.24;37.91
9695;BME280;4690;52.422;13.486;2023-04-25T09:42:05;100520.97;;;15.71;38.12
9695;BME280;4690;52.422;13.486;2023-04-25T09:44:31;100525.16;;;15.46;38.50
9695;BME280;4690;52.422;13.486;2023-04-25T09:46:57;100521.50;;;15.04;38.98
9695;BME280;4690;52.422;13.486;2023-04-25T09:49:25;100519.09;;;15.12;39.77
9695;BME280;4690;52.422;13.486;2023-04-25T09:51:59;100533.91;;;15.71;39.96
9695;BME280;4690;52.422;13.486;2023-04-25T09:54:26;100518.34;;;15.97;38.41
9695;BME280;4690;52.422;13.486;2023-04-25T09:56:53;100517.91;;;15.73;38.14
9695;BME280;4690;52.422;13.486;2023-04-25T09:59:22;100511.94;;;15.86;38.82
9695;BME280;4690;52.422;13.486;2023-04-25T10:01:49;100518.50;;;15.75;39.20
9695;BME280;4690;52.422;13.486;2023-04-25T10:04:21;100524.69;;;15.22;40.26
9695;BME280;4690;52.422;13.486;2023-04-25T10:06:49;100524.41;;;15.19;40.32
9695;BME280;4690;52.422;13.486;2023-04-25T10:09:21;100528.22;;;15.13;40.55
9695;BME280;4690;52.422;13.486;2023-04-25T10:11:51;100528.41;;;15.06;41.01
9695;BME280;4690;52.422;13.486;2023-04-25T10:14:18;100525.75;;;14.89;40.51
9695;BME280;4690;52.422;13.486;2023-04-25T10:16:45;100534.56;;;14.59;40.30
9695;BME280;4690;52.422;13.486;2023-04-25T10:19:11;100537.91;;;14.39;41.02
9695;BME280;4690;52.422;13.486;2023-04-25T10:21:48;100543.97;;;13.97;40.98
9695;BME280;4690;52.422;13.486;2023-04-25T10:24:16;100542.03;;;13.98;40.84
9695;BME280;4690;52.422;13.486;2023-04-25T10:26:42;100538.97;;;13.94;40.84
9695;BME280;4690;52.422;13.486;2023-04-25T10:29:09;100546.53;;;14.04;40.55
9695;BME280;4690;52.422;13.486;2023-04-25T10:31:45;100546.78;;;13.63;40.85
9695;BME280;4690;52.422;13.486;2023-04-25T10:34:12;100538.44;;;13.58;42.03
9695;BME280;4690;52.422;13.486;2023-04-25T10:36:38;100546.25;;;13.83;41.36
9695;BME280;4690;52.422;13.486;2023-04-25T10:39:06;100539.56;;;13.79;40.80
9695;BME280;4690;52.422;13.486;2023-04-25T10:42:07;100551.09;;;13.76;40.82
9695;BME280;4690;52.422;13.486;2023-04-25T10:44:34;100542.00;;;13.76;40.32
9695;BME280;4690;52.422;13.486;2023-04-25T10:47:02;100552.28;;;13.63;40.08
9695;BME280;4690;52.422;13.486;2023-04-25T10:49:42;100548.03;;;13.73;41.19
9695;BME280;4690;52.422;13.486;2023-04-25T10:52:25;100547.75;;;14.13;41.00
9695;BME280;4690;52.422;13.486;2023-04-25T10:54:56;100545.38;;;14.44;41.37
9695;BME280;4690;52.422;13.486;2023-04-25T10:57:38;100555.22;;;14.56;37.93
9695;BME280;4690;52.422;13.486;2023-04-25T11:00:12;100558.97;;;14.72;39.06
9695;BME280;4690;52.422;13.486;2023-04-25T11:05:34;100552.25;;;14.41;39.57
9695;BME280;4690;52.422;13.486;2023-04-25T11:08:02;100565.25;;;13.85;40.40
9695;BME280;4690;52.422;13.486;2023-04-25T11:10:31;100569.53;;;13.93;39.66
9695;BME280;4690;52.422;13.486;2023-04-25T11:12:58;100572.47;;;13.86;40.40
9695;BME280;4690;52.422;13.486;2023-04-25T11:15:26;100574.25;;;13.58;41.33
9695;BME280;4690;52.422;13.486;2023-04-25T11:17:55;100584.66;;;13.73;41.29
9695;BME280;4690;52.422;13.486;2023-04-25T11:20:24;100582.72;;;13.74;40.52
9695;BME280;4690;52.422;13.486;2023-04-25T11:22:51;100577.63;;;13.82;39.68
9695;BME280;4690;52.422;13.486;2023-04-25T11:25:17;100587.31;;;13.85;39.45
9695;BME280;4690;52.422;13.486;2023-04-25T11:27:54;100582.38;;;13.87;40.03
9695;BME280;4690;52.422;13.486;2023-04-25T11:30:22;100575.78;;;13.71;40.14
9695;BME280;4690;52.422;13.486;2023-04-25T11:32:49;100592.03;;;13.22;40.11
9695;BME280;4690;52.422;13.486;2023-04-25T11:35:16;100595.66;;;12.94;40.14
9695;BME280;4690;52.422;13.486;2023-04-25T11:37:43;100598.72;;;13.09;40.98
9695;BME280;4690;52.422;13.486;2023-04-25T11:40:10;100598.31;;;13.34;40.77
9695;BME280;4690;52.422;13.486;2023-04-25T11:42:38;100615.69;;;13.35;40.94
9695;BME280;4690;52.422;13.486;2023-04-25T11:45:05;100619.53;;;13.34;40.99
9695;BME280;4690;52.422;13.486;2023-04-25T11:47:33;100616.16;;;13.03;39.51
9695;BME280;4690;52.422;13.486;2023-04-25T11:50:01;100620.13;;;13.07;39.91
9695;BME280;4690;52.422;13.486;2023-04-25T11:52:46;100625.19;;;12.98;40.01
9695;BME280;4690;52.422;13.486;2023-04-25T11:55:18;100624.53;;;12.79;39.90
9695;BME280;4690;52.422;13.486;2023-04-25T11:57:47;100628.53;;;12.60;39.74
9695;BME280;4690;52.422;13.486;2023-04-25T12:00:17;100633.59;;;12.51;38.86
9695;BME280;4690;52.422;13.486;2023-04-25T12:02:51;100638.13;;;12.46;38.78
9695;BME280;4690;52.422;13.486;2023-04-25T12:05:18;100634.41;;;12.52;38.20
9695;BME280;4690;52.422;13.486;2023-04-25T12:07:46;100627.97;;;12.46;38.55
9695;BME280;4690;52.422;13.486;2023-04-25T12:10:14;100635.63;;;12.56;38.38
9695;BME280;4690;52.422;13.486;2023-04-25T12:12:45;100639.38;;;12.78;37.77
9695;BME280;4690;52.422;13.486;2023-04-25T12:15:14;100626.91;;;12.88;38.08
9695;BME280;4690;52.422;13.486;2023-04-25T12:17:52;100643.19;;;12.77;38.78
9695;BME280;4690;52.422;13.486;2023-04-25T12:20:21;100649.88;;;12.82;39.53
9695;BME280;4690;52.422;13.486;2023-04-25T12:22:51;100649.19;;;12.74;38.56
9695;BME280;4690;52.422;13.486;2023-04-25T12:31:00;100643.72;;;12.63;40.00
9695;BME280;4690;52.422;13.486;2023-04-25T12:33:35;100636.38;;;12.80;40.40
9695;BME280;4690;52.422;13.486;2023-04-25T12:36:03;100639.72;;;12.82;39.60
9695;BME280;4690;52.422;13.486;2023-04-25T12:38:37;100647.97;;;12.82;38.72
9695;BME280;4690;52.422;13.486;2023-04-25T12:41:04;100645.94;;;12.77;38.63
9695;BME280;4690;52.422;13.486;2023-04-25T12:43:29;100639.38;;;12.78;38.67
9695;BME280;4690;52.422;13.486;2023-04-25T12:45:56;100644.50;;;12.75;38.99
9695;BME280;4690;52.422;13.486;2023-04-25T12:48:23;100633.75;;;12.73;38.87
9695;BME280;4690;52.422;13.486;2023-04-25T12:50:50;100636.50;;;12.73;39.14
9695;BME280;4690;52.422;13.486;2023-04-25T12:53:21;100648.63;;;13.01;38.17
9695;BME280;4690;52.422;13.486;2023-04-25T12:55:48;100638.13;;;13.15;38.27
9695;BME280;4690;52.422;13.486;2023-04-25T12:58:19;100652.16;;;13.42;38.82
9695;BME280;4690;52.422;13.486;2023-04-25T13:00:45;100648.41;;;13.65;37.32
9695;BME280;4690;52.422;13.486;2023-04-25T13:03:24;100658.06;;;13.34;38.06
9695;BME280;4690;52.422;13.486;2023-04-25T13:05:51;100654.09;;;13.58;39.20
9695;BME280;4690;52.422;13.486;2023-04-25T13:08:18;100663.88;;;13.66;37.71
9695;BME280;4690;52.422;13.486;2023-04-25T13:10:44;100671.75;;;13.62;37.96
9695;BME280;4690;52.422;13.486;2023-04-25T13:13:10;100664.47;;;13.39;38.25
9695;BME280;4690;52.422;13.486;2023-04-25T13:15:36;100665.56;;;13.10;38.20
9695;BME280;4690;52.422;13.486;2023-04-25T13:18:04;100668.50;;;12.91;38.09